sensor_id;sensor_type;location;lat;lon;timestamp;pressure;altitude;pressure_sealevel;temperature;humidity
25238;BME280;13185;50.872;5.306;2023-05-07T00:01:01;101213.22;;;14.63;100.00
25238;BME280;13185;50.872;5.306;2023-05-07T00:03:27;101207.09;;;14.61;100.00
25238;BME280;13185;50.872;5.306;2023-05-07T00:05:54;101215.19;;;14.61;100.00
25238;BME280;13185;50.872;5.306;2023-05-07T00:08:19;101213.22;;;14.63;100.00
25238;BME280;13185;50.872;5.306;2023-05-07T00:10:45;101207.84;;;14.63;100.00
25238;BME280;13185;50.872;5.306;2023-05-07T00:13:11;101206.00;;;14.64;100.00
25238;BME280;13185;50.872;5.306;2023-05-07T00:15:37;101208.56;;;14.65;100.00
25238;BME280;13185;50.872;5.306;2023-05-07T00:18:03;101197.66;;;14.67;100.00
25238;BME280;13185;50.872;5.306;2023-05-07T00:20:28;101201.09;;;14.69;100.00
25238;BME280;13185;50.872;5.306;2023-05-07T00:22:54;101211.78;;;14.70;100.00
25238;BME280;13185;50.872;5.306;2023-05-07T00:25:19;101209.97;;;14.71;100.00
25238;BME280;13185;50.872;5.306;2023-05-07T00:27:45;101202.72;;;14.71;100.00
25238;BME280;13185;50.872;5.306;2023-05-07T00:30:11;101207.25;;;14.71;100.00
25238;BME280;13185;50.872;5.306;2023-05-07T00:32:37;101201.84;;;14.71;100.00
25238;BME280;13185;50.872;5.306;2023-05-07T00:35:03;101197.44;;;14.70;100.00
25238;BME280;13185;50.872;5.306;2023-05-07T00:37:29;101192.03;;;14.70;100.00
25238;BME280;13185;50.872;5.306;2023-05-07T00:39:55;101182.97;;;14.71;100.00
25238;BME280;13185;50.872;5.306;2023-05-07T00:42:21;101176.56;;;14.72;100.00
25238;BME280;13185;50.872;5.306;2023-05-07T00:44:46;101178.41;;;14.71;100.00
25238;BME280;13185;50.872;5.306;2023-05-07T00:47:13;101174.84;;;14.71;100.00
25238;BME280;13185;50.872;5.306;2023-05-07T00:49:42;101167.75;;;14.70;100.00
25238;BME280;13185;50.872;5.306;2023-05-07T00:52:09;101179.41;;;14.70;100.00
25238;BME280;13185;50.872;5.306;2023-05-07T00:54:36;101167.84;;;14.68;100.00
25238;BME280;13185;50.872;5.306;2023-05-07T00:57:03;101174.09;;;14.69;100.00
25238;BME280;13185;50.872;5.306;2023-05-07T00:59:30;101176.91;;;14.67;100.00
25238;BME280;13185;50.872;5.306;2023-05-07T01:01:57;101172.50;;;14.66;100.00
25238;BME280;13185;50.872;5.306;2023-05-07T01:04:22;101172.50;;;14.66;100.00
25238;BME280;13185;50.872;5.306;2023-05-07T01:06:50;101166.38;;;14.64;100.00
25238;BME280;13185;50.872;5.306;2023-05-07T01:09:16;101167.22;;;14.65;100.00
25238;BME280;13185;50.872;5.306;2023-05-07T01:11:43;101160.09;;;14.64;100.00
25238;BME280;13185;50.872;5.306;2023-05-07T01:14:09;101156.41;;;14.65;100.00
25238;BME280;13185;50.872;5.306;2023-05-07T01:16:36;101162.69;;;14.65;100.00
25238;BME280;13185;50.872;5.306;2023-05-07T01:19:02;101154.59;;;14.65;100.00
25238;BME280;13185;50.872;5.306;2023-05-07T01:21:29;101152.88;;;14.64;100.00
25238;BME280;13185;50.872;5.306;2023-05-07T01:23:58;101148.44;;;14.63;100.00
25238;BME280;13185;50.872;5.306;2023-05-07T01:26:24;101149.44;;;14.62;100.00
25238;BME280;13185;50.872;5.306;2023-05-07T01:28:50;101145.88;;;14.62;100.00
25238;BME280;13185;50.872;5.306;2023-05-07T01:31:16;101140.59;;;14.60;100.00
25238;BME280;13185;50.872;5.306;2023-05-07T01:33:44;101138.88;;;14.59;100.00
25238;BME280;13185;50.872;5.306;2023-05-07T01:36:11;101146.09;;;14.59;100.00
25238;BME280;13185;50.872;5.306;2023-05-07T01:38:39;101141.19;;;14.53;100.00
25238;BME280;13185;50.872;5.306;2023-05-07T01:41:05;101145.84;;;14.51;100.00
25238;BME280;13185;50.872;5.306;2023-05-07T01:43:30;101149.72;;;14.47;100.00
25238;BME280;13185;50.872;5.306;2023-05-07T01:45:57;101149.94;;;14.43;100.00
25238;BME280;13185;50.872;5.306;2023-05-07T01:48:24;101154.38;;;14.44;100.00
25238;BME280;13185;50.872;5.306;2023-05-07T01:50:50;101149.94;;;14.43;100.00
25238;BME280;13185;50.872;5.306;2023-05-07T01:53:16;101146.50;;;14.41;100.00
25238;BME280;13185;50.872;5.306;2023-05-07T01:55:42;101143.94;;;14.40;100.00
25238;BME280;13185;50.872;5.306;2023-05-07T01:58:11;101152.22;;;14.37;100.00
25238;BME280;13185;50.872;5.306;2023-05-07T02:00:37;101149.66;;;14.35;100.00
25238;BME280;13185;50.872;5.306;2023-05-07T02:03:03;101157.75;;;14.35;100.00
25238;BME280;13185;50.872;5.306;2023-05-07T02:05:40;101159.59;;;14.35;100.00
25238;BME280;13185;50.872;5.306;2023-05-07T02:08:13;101159.59;;;14.35;100.00
25238;BME280;13185;50.872;5.306;2023-05-07T02:10:39;101160.44;;;14.35;100.00
25238;BME280;13185;50.872;5.306;2023-05-07T02:13:06;101166.81;;;14.34;100.00
25238;BME280;13185;50.872;5.306;2023-05-07T02:15:31;101175.53;;;14.38;100.00
25238;BME280;13185;50.872;5.306;2023-05-07T02:18:07;101171.91;;;14.39;100.00
25238;BME280;13185;50.872;5.306;2023-05-07T02:20:33;101167.44;;;14.38;100.00
25238;BME280;13185;50.872;5.306;2023-05-07T02:22:59;101170.13;;;14.38;100.00
25238;BME280;13185;50.872;5.306;2023-05-07T02:25:26;101169.41;;;14.36;100.00
25238;BME280;13185;50.872;5.306;2023-05-07T02:27:51;101170.38;;;14.35;100.00
25238;BME280;13185;50.872;5.306;2023-05-07T02:30:19;101156.03;;;14.34;100.00
25238;BME280;13185;50.872;5.306;2023-05-07T02:32:47;101163.88;;;14.37;100.00
25238;BME280;13185;50.872;5.306;2023-05-07T02:35:12;101165.72;;;14.37;100.00
25238;BME280;13185;50.872;5.306;2023-05-07T02:37:38;101163.88;;;14.37;100.00
25238;BME280;13185;50.872;5.306;2023-05-07T02:40:04;101159.59;;;14.35;100.00
25238;BME280;13185;50.872;5.306;2023-05-07T02:42:30;101167.56;;;14.36;100.00
25238;BME280;13185;50.872;5.306;2023-05-07T02:44:56;101170.13;;;14.38;100.00
25238;BME280;13185;50.872;5.306;2023-05-07T02:47:21;101155.91;;;14.36;100.00
25238;BME280;13185;50.872;5.306;2023-05-07T02:49:47;101156.03;;;14.34;100.00
25238;BME280;13185;50.872;5.306;2023-05-07T02:52:13;101159.72;;;14.33;100.00
25238;BME280;13185;50.872;5.306;2023-05-07T02:54:38;101157.00;;;14.33;100.00
25238;BME280;13185;50.872;5.306;2023-05-07T02:57:04;101167.81;;;14.33;100.00
25238;BME280;13185;50.872;5.306;2023-05-07T02:59:30;101156.16;;;14.33;100.00
25238;BME280;13185;50.872;5.306;2023-05-07T03:01:56;101150.03;;;14.31;100.00
25238;BME280;13185;50.872;5.306;2023-05-07T03:04:22;101150.88;;;14.31;100.00
25238;BME280;13185;50.872;5.306;2023-05-07T03:06:47;101151.00;;;14.30;100.00
25238;BME280;13185;50.872;5.306;2023-05-07T03:09:13;101144.75;;;14.29;100.00
25238;BME280;13185;50.872;5.306;2023-05-07T03:11:38;101148.50;;;14.27;100.00
25238;BME280;13185;50.872;5.306;2023-05-07T03:14:04;101145.81;;;14.27;100.00
25238;BME280;13185;50.872;5.306;2023-05-07T03:16:30;101143.13;;;14.27;100.00
25238;BME280;13185;50.872;5.306;2023-05-07T03:18:56;101136.88;;;14.26;100.00
25238;BME280;13185;50.872;5.306;2023-05-07T03:21:21;101143.25;;;14.25;100.00
25238;BME280;13185;50.872;5.306;2023-05-07T03:23:47;101145.81;;;14.27;100.00
25238;BME280;13185;50.872;5.306;2023-05-07T03:26:12;101137.84;;;14.25;100.00
25238;BME280;13185;50.872;5.306;2023-05-07T03:28:38;101149.63;;;14.24;100.00
25238;BME280;13185;50.872;5.306;2023-05-07T03:31:07;101150.59;;;14.23;100.00
25238;BME280;13185;50.872;5.306;2023-05-07T03:33:47;101160.53;;;14.23;100.00
25238;BME280;13185;50.872;5.306;2023-05-07T03:36:14;101165.78;;;14.24;100.00
25238;BME280;13185;50.872;5.306;2023-05-07T03:38:40;101157.59;;;14.26;100.00
25238;BME280;13185;50.872;5.306;2023-05-07T03:41:05;101162.84;;;14.27;100.00
25238;BME280;13185;50.872;5.306;2023-05-07T03:43:31;101160.28;;;14.26;100.00
25238;BME280;13185;50.872;5.306;2023-05-07T03:46:02;101163.84;;;14.26;100.00
25238;BME280;13185;50.872;5.306;2023-05-07T03:48:28;101163.84;;;14.26;100.00
25238;BME280;13185;50.872;5.306;2023-05-07T03:50:57;101154.03;;;14.25;100.00
25238;BME280;13185;50.872;5.306;2023-05-07T03:53:24;101160.41;;;14.24;100.00
25238;BME280;13185;50.872;5.306;2023-05-07T03:55:50;101161.25;;;14.25;100.00
25238;BME280;13185;50.872;5.306;2023-05-07T03:58:16;101159.53;;;14.24;100.00
25238;BME280;13185;50.872;5.306;2023-05-07T04:00:42;101164.09;;;14.23;100.00
25238;BME280;13185;50.872;5.306;2023-05-07T04:03:17;101164.09;;;14.23;100.00
25238;BME280;13185;50.872;5.306;2023-05-07T04:05:43;101162.34;;;14.22;100.00
25238;BME280;13185;50.872;5.306;2023-05-07T04:08:08;101167.63;;;14.24;100.00
25238;BME280;13185;50.872;5.306;2023-05-07T04:10:38;101163.09;;;14.24;100.00
25238;BME280;13185;50.872;5.306;2023-05-07T04:13:08;101161.13;;;14.26;100.00
25238;BME280;13185;50.872;5.306;2023-05-07T04:15:35;101168.25;;;14.27;100.00
25238;BME280;13185;50.872;5.306;2023-05-07T04:18:01;101164.59;;;14.28;100.00
25238;BME280;13185;50.872;5.306;2023-05-07T04:20:27;101160.94;;;14.29;100.00
25238;BME280;13185;50.872;5.306;2023-05-07T04:22:58;101159.94;;;14.30;100.00
25238;BME280;13185;50.872;5.306;2023-05-07T04:25:24;101157.13;;;14.32;100.00
25238;BME280;13185;50.872;5.306;2023-05-07T04:27:54;101155.41;;;14.31;100.00
25238;BME280;13185;50.872;5.306;2023-05-07T04:30:21;101157.25;;;14.30;100.00
25238;BME280;13185;50.872;5.306;2023-05-07T04:32:46;101154.44;;;14.32;100.00
25238;BME280;13185;50.872;5.306;2023-05-07T04:35:13;101150.75;;;14.33;100.00
25238;BME280;13185;50.872;5.306;2023-05-07T04:37:40;101149.78;;;14.34;100.00
25238;BME280;13185;50.872;5.306;2023-05-07T04:40:06;101154.19;;;14.35;100.00
25238;BME280;13185;50.872;5.306;2023-05-07T04:42:32;101150.63;;;14.34;100.00
25238;BME280;13185;50.872;5.306;2023-05-07T04:45:01;101157.63;;;14.37;100.00
25238;BME280;13185;50.872;5.306;2023-05-07T04:47:29;101162.94;;;14.38;100.00
25238;BME280;13185;50.872;5.306;2023-05-07T04:49:55;101162.81;;;14.40;100.00
25238;BME280;13185;50.872;5.306;2023-05-07T04:52:20;101168.22;;;14.40;100.00
25238;BME280;13185;50.872;5.306;2023-05-07T04:54:47;101175.31;;;14.41;100.00
25238;BME280;13185;50.872;5.306;2023-05-07T04:57:13;101165.19;;;14.44;100.00
25238;BME280;13185;50.872;5.306;2023-05-07T04:59:41;101174.88;;;14.47;100.00
25238;BME280;13185;50.872;5.306;2023-05-07T05:02:07;101169.28;;;14.50;100.00
25238;BME280;13185;50.872;5.306;2023-05-07T05:04:33;101178.84;;;14.54;100.00
25238;BME280;13185;50.872;5.306;2023-05-07T05:06:58;101175.91;;;14.57;100.00
25238;BME280;13185;50.872;5.306;2023-05-07T05:09:24;101181.94;;;14.61;100.00
25238;BME280;13185;50.872;5.306;2023-05-07T05:11:50;101182.44;;;14.66;100.00
25238;BME280;13185;50.872;5.306;2023-05-07T05:14:15;101185.78;;;14.69;100.00
25238;BME280;13185;50.872;5.306;2023-05-07T05:16:41;101191.78;;;14.73;100.00
25238;BME280;13185;50.872;5.306;2023-05-07T05:19:06;101187.38;;;14.72;100.00
25238;BME280;13185;50.872;5.306;2023-05-07T05:21:38;101189.09;;;14.73;100.00
25238;BME280;13185;50.872;5.306;2023-05-07T05:24:07;101189.72;;;14.77;100.00
25238;BME280;13185;50.872;5.306;2023-05-07T05:26:32;101195.75;;;14.80;100.00
25238;BME280;13185;50.872;5.306;2023-05-07T05:28:58;101197.09;;;14.86;100.00
25238;BME280;13185;50.872;5.306;2023-05-07T05:31:25;101201.41;;;14.88;100.00
25238;BME280;13185;50.872;5.306;2023-05-07T05:33:51;101201.06;;;14.93;100.00
25238;BME280;13185;50.872;5.306;2023-05-07T05:36:17;101202.53;;;14.97;100.00
25238;BME280;13185;50.872;5.306;2023-05-07T05:38:45;101198.38;;;15.04;100.00
25238;BME280;13185;50.872;5.306;2023-05-07T05:41:11;101198.66;;;15.12;100.00
25238;BME280;13185;50.872;5.306;2023-05-07T05:43:37;101200.72;;;15.20;100.00
25238;BME280;13185;50.872;5.306;2023-05-07T05:46:02;101191.91;;;15.29;100.00
25238;BME280;13185;50.872;5.306;2023-05-07T05:48:29;101197.56;;;15.37;100.00
25238;BME280;13185;50.872;5.306;2023-05-07T05:50:55;101196.81;;;15.46;100.00
25238;BME280;13185;50.872;5.306;2023-05-07T05:53:21;101194.50;;;15.53;100.00
25238;BME280;13185;50.872;5.306;2023-05-07T05:55:46;101200.25;;;15.59;100.00
25238;BME280;13185;50.872;5.306;2023-05-07T05:58:12;101202.75;;;15.63;100.00
25238;BME280;13185;50.872;5.306;2023-05-07T06:00:43;101200.53;;;15.68;100.00
25238;BME280;13185;50.872;5.306;2023-05-07T06:03:10;101199.28;;;15.72;100.00
25238;BME280;13185;50.872;5.306;2023-05-07T06:05:35;101206.91;;;15.78;100.00
25238;BME280;13185;50.872;5.306;2023-05-07T06:08:01;101200.28;;;15.82;100.00
25238;BME280;13185;50.872;5.306;2023-05-07T06:10:31;101210.47;;;15.90;100.00
25238;BME280;13185;50.872;5.306;2023-05-07T06:12:57;101201.97;;;15.94;100.00
25238;BME280;13185;50.872;5.306;2023-05-07T06:15:22;101216.59;;;16.03;100.00
25238;BME280;13185;50.872;5.306;2023-05-07T06:17:48;101216.09;;;16.09;100.00
25238;BME280;13185;50.872;5.306;2023-05-07T06:20:15;101215.09;;;16.21;100.00
25238;BME280;13185;50.872;5.306;2023-05-07T06:22:40;101212.34;;;16.32;100.00
25238;BME280;13185;50.872;5.306;2023-05-07T06:25:09;101206.53;;;16.48;100.00
25238;BME280;13185;50.872;5.306;2023-05-07T06:27:35;101206.31;;;16.72;100.00
25238;BME280;13185;50.872;5.306;2023-05-07T06:30:01;101209.63;;;16.96;100.00
25238;BME280;13185;50.872;5.306;2023-05-07T06:32:27;101213.31;;;17.16;100.00
25238;BME280;13185;50.872;5.306;2023-05-07T06:34:53;101211.00;;;17.33;100.00
25238;BME280;13185;50.872;5.306;2023-05-07T06:37:19;101220.06;;;17.43;98.89
25238;BME280;13185;50.872;5.306;2023-05-07T06:40:00;101223.34;;;17.46;97.85
25238;BME280;13185;50.872;5.306;2023-05-07T06:42:28;101213.78;;;17.42;96.98
25238;BME280;13185;50.872;5.306;2023-05-07T06:45:00;101223.16;;;17.38;96.51
25238;BME280;13185;50.872;5.306;2023-05-07T06:47:29;101229.38;;;17.29;94.86
25238;BME280;13185;50.872;5.306;2023-05-07T06:49:54;101228.66;;;17.06;93.97
25238;BME280;13185;50.872;5.306;2023-05-07T06:52:23;101238.56;;;16.96;94.46
25238;BME280;13185;50.872;5.306;2023-05-07T06:54:50;101231.72;;;16.92;95.00
25238;BME280;13185;50.872;5.306;2023-05-07T06:57:17;101229.28;;;16.89;95.20
25238;BME280;13185;50.872;5.306;2023-05-07T06:59:43;101237.50;;;16.87;95.03
25238;BME280;13185;50.872;5.306;2023-05-07T07:02:09;101235.41;;;16.91;95.31
25238;BME280;13185;50.872;5.306;2023-05-07T07:04:35;101229.22;;;17.00;95.85
25238;BME280;13185;50.872;5.306;2023-05-07T07:07:05;101234.06;;;17.06;94.79
25238;BME280;13185;50.872;5.306;2023-05-07T07:09:31;101231.84;;;17.11;93.95
25238;BME280;13185;50.872;5.306;2023-05-07T07:11:57;101230.63;;;17.25;93.85
25238;BME280;13185;50.872;5.306;2023-05-07T07:14:23;101230.75;;;17.44;94.15
25238;BME280;13185;50.872;5.306;2023-05-07T07:16:51;101227.69;;;17.58;93.63
25238;BME280;13185;50.872;5.306;2023-05-07T07:19:18;101237.66;;;17.79;94.17
25238;BME280;13185;50.872;5.306;2023-05-07T07:21:46;101234.66;;;17.82;90.91
25238;BME280;13185;50.872;5.306;2023-05-07T07:24:13;101241.53;;;17.86;90.39
25238;BME280;13185;50.872;5.306;2023-05-07T07:26:45;101238.25;;;17.92;89.89
25238;BME280;13185;50.872;5.306;2023-05-07T07:29:11;101240.44;;;17.98;89.12
25238;BME280;13185;50.872;5.306;2023-05-07T07:31:38;101240.75;;;18.05;88.83
25238;BME280;13185;50.872;5.306;2023-05-07T07:34:04;101233.91;;;18.20;89.08
25238;BME280;13185;50.872;5.306;2023-05-07T07:36:30;101238.38;;;18.40;88.76
25238;BME280;13185;50.872;5.306;2023-05-07T07:38:56;101234.97;;;18.48;87.55
25238;BME280;13185;50.872;5.306;2023-05-07T07:41:21;101236.00;;;18.57;86.74
25238;BME280;13185;50.872;5.306;2023-05-07T07:43:47;101242.44;;;18.75;85.99
25238;BME280;13185;50.872;5.306;2023-05-07T07:46:13;101244.31;;;18.94;84.98
25238;BME280;13185;50.872;5.306;2023-05-07T07:48:39;101245.44;;;19.01;82.83
25238;BME280;13185;50.872;5.306;2023-05-07T07:51:04;101247.44;;;19.09;82.73
25238;BME280;13185;50.872;5.306;2023-05-07T07:53:31;101243.97;;;19.16;81.63
25238;BME280;13185;50.872;5.306;2023-05-07T07:55:56;101250.69;;;19.31;81.97
25238;BME280;13185;50.872;5.306;2023-05-07T07:58:25;101254.22;;;19.51;81.38
25238;BME280;13185;50.872;5.306;2023-05-07T08:00:51;101250.22;;;19.55;80.39
25238;BME280;13185;50.872;5.306;2023-05-07T08:03:17;101254.25;;;19.61;79.65
25238;BME280;13185;50.872;5.306;2023-05-07T08:05:46;101261.78;;;19.67;79.03
25238;BME280;13185;50.872;5.306;2023-05-07T08:08:12;101263.66;;;19.67;78.47
25238;BME280;13185;50.872;5.306;2023-05-07T08:10:39;101257.97;;;19.60;78.81
25238;BME280;13185;50.872;5.306;2023-05-07T08:13:12;101256.06;;;19.70;79.58
25238;BME280;13185;50.872;5.306;2023-05-07T08:15:39;101251.53;;;19.88;79.36
25238;BME280;13185;50.872;5.306;2023-05-07T08:18:05;101251.94;;;19.94;78.29
25238;BME280;13185;50.872;5.306;2023-05-07T08:20:32;101256.22;;;19.96;76.76
25238;BME280;13185;50.872;5.306;2023-05-07T08:22:59;101256.44;;;19.85;74.82
25238;BME280;13185;50.872;5.306;2023-05-07T08:25:26;101259.34;;;19.74;74.88
25238;BME280;13185;50.872;5.306;2023-05-07T08:27:51;101257.19;;;19.68;75.30
25238;BME280;13185;50.872;5.306;2023-05-07T08:30:18;101264.50;;;19.67;75.44
25238;BME280;13185;50.872;5.306;2023-05-07T08:32:45;101268.34;;;19.74;75.31
25238;BME280;13185;50.872;5.306;2023-05-07T08:35:10;101266.63;;;19.83;75.46
25238;BME280;13185;50.872;5.306;2023-05-07T08:37:36;101274.03;;;19.91;75.58
25238;BME280;13185;50.872;5.306;2023-05-07T08:40:02;101268.59;;;19.91;73.70
25238;BME280;13185;50.872;5.306;2023-05-07T08:42:35;101267.84;;;19.88;73.11
25238;BME280;13185;50.872;5.306;2023-05-07T08:45:02;101274.75;;;19.93;72.67
25238;BME280;13185;50.872;5.306;2023-05-07T08:47:40;101278.00;;;19.96;73.37
25238;BME280;13185;50.872;5.306;2023-05-07T08:50:08;101277.25;;;20.04;73.12
25238;BME280;13185;50.872;5.306;2023-05-07T08:52:34;101271.34;;;20.08;72.95
25238;BME280;13185;50.872;5.306;2023-05-07T08:55:05;101276.38;;;20.13;72.92
25238;BME280;13185;50.872;5.306;2023-05-07T08:57:31;101278.34;;;20.11;72.14
25238;BME280;13185;50.872;5.306;2023-05-07T08:59:58;101285.53;;;20.12;72.77
25238;BME280;13185;50.872;5.306;2023-05-07T09:02:23;101276.38;;;20.13;73.37
25238;BME280;13185;50.872;5.306;2023-05-07T09:04:49;101291.84;;;20.12;73.09
25238;BME280;13185;50.872;5.306;2023-05-07T09:07:16;101287.97;;;20.15;73.14
25238;BME280;13185;50.872;5.306;2023-05-07T09:09:44;101285.06;;;20.16;72.93
25238;BME280;13185;50.872;5.306;2023-05-07T09:12:11;101287.34;;;20.21;73.04
25238;BME280;13185;50.872;5.306;2023-05-07T09:14:38;101290.47;;;20.26;73.09
25238;BME280;13185;50.872;5.306;2023-05-07T09:17:04;101294.75;;;20.29;73.15
25238;BME280;13185;50.872;5.306;2023-05-07T09:19:30;101294.75;;;20.29;72.91
25238;BME280;13185;50.872;5.306;2023-05-07T09:22:02;101299.28;;;20.38;73.73
25238;BME280;13185;50.872;5.306;2023-05-07T09:24:34;101298.41;;;20.47;73.06
25238;BME280;13185;50.872;5.306;2023-05-07T09:27:07;101304.81;;;20.56;73.05
25238;BME280;13185;50.872;5.306;2023-05-07T09:29:34;101304.50;;;20.59;73.45
25238;BME280;13185;50.872;5.306;2023-05-07T09:32:08;101311.56;;;20.52;72.49
25238;BME280;13185;50.872;5.306;2023-05-07T09:34:35;101308.47;;;20.46;72.35
25238;BME280;13185;50.872;5.306;2023-05-07T09:37:02;101306.28;;;20.40;72.35
25238;BME280;13185;50.872;5.306;2023-05-07T09:39:45;101303.34;;;20.34;73.11
25238;BME280;13185;50.872;5.306;2023-05-07T09:42:13;101308.06;;;20.32;73.15
25238;BME280;13185;50.872;5.306;2023-05-07T09:44:46;101305.66;;;20.29;72.63
25238;BME280;13185;50.872;5.306;2023-05-07T09:47:19;101312.25;;;20.26;72.95
25238;BME280;13185;50.872;5.306;2023-05-07T09:49:55;101312.84;;;20.20;73.02
25238;BME280;13185;50.872;5.306;2023-05-07T09:52:26;101323.34;;;20.15;73.01
25238;BME280;13185;50.872;5.306;2023-05-07T09:55:01;101322.81;;;20.11;73.23
25238;BME280;13185;50.872;5.306;2023-05-07T09:57:30;101322.25;;;19.98;72.46
25238;BME280;13185;50.872;5.306;2023-05-07T10:00:00;101328.19;;;19.84;72.96
25238;BME280;13185;50.872;5.306;2023-05-07T10:02:35;101325.91;;;19.79;73.19
25238;BME280;13185;50.872;5.306;2023-05-07T10:05:03;101326.81;;;19.70;73.91
25238;BME280;13185;50.872;5.306;2023-05-07T10:07:31;101329.66;;;19.69;74.31
25238;BME280;13185;50.872;5.306;2023-05-07T10:10:03;101331.53;;;19.58;74.91
25238;BME280;13185;50.872;5.306;2023-05-07T10:12:35;101342.31;;;19.60;75.52
25238;BME280;13185;50.872;5.306;2023-05-07T10:15:07;101341.16;;;19.63;76.20
25238;BME280;13185;50.872;5.306;2023-05-07T10:17:38;101344.84;;;19.52;76.41
25238;BME280;13185;50.872;5.306;2023-05-07T10:20:05;101347.28;;;19.45;76.68
25238;BME280;13185;50.872;5.306;2023-05-07T10:22:44;101347.88;;;19.49;77.01
25238;BME280;13185;50.872;5.306;2023-05-07T10:25:22;101350.44;;;19.50;77.83
25238;BME280;13185;50.872;5.306;2023-05-07T10:27:50;101353.31;;;19.49;77.23
25238;BME280;13185;50.872;5.306;2023-05-07T10:33:03;101351.88;;;19.45;76.87
25238;BME280;13185;50.872;5.306;2023-05-07T10:35:39;101361.91;;;19.44;76.70
25238;BME280;13185;50.872;5.306;2023-05-07T10:38:07;101360.75;;;19.37;76.86
25238;BME280;13185;50.872;5.306;2023-05-07T10:40:35;101363.91;;;19.32;77.94
25238;BME280;13185;50.872;5.306;2023-05-07T10:43:05;101372.06;;;19.32;77.90
25238;BME280;13185;50.872;5.306;2023-05-07T10:45:37;101365.63;;;19.24;78.27
25238;BME280;13185;50.872;5.306;2023-05-07T10:48:07;101370.19;;;19.23;78.91
25238;BME280;13185;50.872;5.306;2023-05-07T10:50:35;101365.75;;;19.13;79.64
25238;BME280;13185;50.872;5.306;2023-05-07T10:56:23;101371.63;;;18.89;83.45
25238;BME280;13185;50.872;5.306;2023-05-07T10:58:43;101366.44;;;18.76;85.43
25238;BME280;13185;50.872;5.306;2023-05-07T11:01:49;101372.72;;;18.67;86.66
25238;BME280;13185;50.872;5.306;2023-05-07T11:04:16;101365.56;;;18.66;86.72
25238;BME280;13185;50.872;5.306;2023-05-07T11:09:57;101369.25;;;18.65;88.85
25238;BME280;13185;50.872;5.306;2023-05-07T11:12:51;101362.50;;;18.59;89.06
25238;BME280;13185;50.872;5.306;2023-05-07T11:15:39;101371.34;;;18.52;89.91
25238;BME280;13185;50.872;5.306;2023-05-07T11:18:16;101367.06;;;18.49;90.00
25238;BME280;13185;50.872;5.306;2023-05-07T11:20:50;101369.91;;;18.48;90.61
25238;BME280;13185;50.872;5.306;2023-05-07T11:26:12;101373.44;;;18.38;91.50
25238;BME280;13185;50.872;5.306;2023-05-07T11:28:43;101377.88;;;18.39;91.01
25238;BME280;13185;50.872;5.306;2023-05-07T11:31:10;101376.75;;;18.42;91.76
25238;BME280;13185;50.872;5.306;2023-05-07T11:33:37;101374.88;;;18.42;93.00
25238;BME280;13185;50.872;5.306;2023-05-07T11:36:07;101379.88;;;18.37;92.81
25238;BME280;13185;50.872;5.306;2023-05-07T11:38:38;101378.84;;;18.29;93.24
25238;BME280;13185;50.872;5.306;2023-05-07T11:41:04;101379.25;;;18.24;93.96
25238;BME280;13185;50.872;5.306;2023-05-07T11:43:33;101386.94;;;18.19;94.78
25238;BME280;13185;50.872;5.306;2023-05-07T11:46:11;101385.09;;;18.20;94.64
25238;BME280;13185;50.872;5.306;2023-05-07T11:48:37;101386.66;;;18.22;95.12
25238;BME280;13185;50.872;5.306;2023-05-07T11:51:05;101393.78;;;18.13;93.94
25238;BME280;13185;50.872;5.306;2023-05-07T11:53:41;101394.91;;;18.11;94.04
25238;BME280;13185;50.872;5.306;2023-05-07T11:56:14;101391.19;;;18.12;94.89
25238;BME280;13185;50.872;5.306;2023-05-07T11:58:41;101389.88;;;18.06;94.70
25238;BME280;13185;50.872;5.306;2023-05-07T12:01:09;101389.75;;;18.08;94.17
25238;BME280;13185;50.872;5.306;2023-05-07T12:03:35;101395.59;;;18.03;95.26
25238;BME280;13185;50.872;5.306;2023-05-07T12:06:05;101389.88;;;18.06;95.25
25238;BME280;13185;50.872;5.306;2023-05-07T12:08:31;101394.19;;;18.09;94.94
25238;BME280;13185;50.872;5.306;2023-05-07T12:10:56;101391.19;;;18.12;94.74
25238;BME280;13185;50.872;5.306;2023-05-07T12:13:24;101390.94;;;18.15;94.99
25238;BME280;13185;50.872;5.306;2023-05-07T12:15:54;101396.94;;;18.18;95.11
25238;BME280;13185;50.872;5.306;2023-05-07T12:18:21;101390.06;;;18.14;94.78
25238;BME280;13185;50.872;5.306;2023-05-07T12:20:47;101400.19;;;18.12;94.77
25238;BME280;13185;50.872;5.306;2023-05-07T12:23:14;101392.91;;;18.13;94.59
25238;BME280;13185;50.872;5.306;2023-05-07T12:25:43;101394.50;;;18.15;94.90
25238;BME280;13185;50.872;5.306;2023-05-07T12:28:17;101398.94;;;18.16;94.73
25238;BME280;13185;50.872;5.306;2023-05-07T12:30:47;101400.13;;;18.24;94.52
25238;BME280;13185;50.872;5.306;2023-05-07T12:33:17;101402.13;;;18.31;94.79
25238;BME280;13185;50.872;5.306;2023-05-07T12:35:48;101396.03;;;18.39;94.83
25238;BME280;13185;50.872;5.306;2023-05-07T12:38:15;101399.31;;;18.42;94.30
25238;BME280;13185;50.872;5.306;2023-05-07T12:40:47;101396.75;;;18.41;94.09
25238;BME280;13185;50.872;5.306;2023-05-07T12:43:19;101407.91;;;18.38;94.21
25238;BME280;13185;50.872;5.306;2023-05-07T12:45:48;101407.03;;;18.37;94.13
25238;BME280;13185;50.872;5.306;2023-05-07T12:48:14;101399.19;;;18.44;94.33
25238;BME280;13185;50.872;5.306;2023-05-07T12:50:40;101402.78;;;18.54;94.52
25238;BME280;13185;50.872;5.306;2023-05-07T12:53:07;101407.69;;;18.60;95.06
25238;BME280;13185;50.872;5.306;2023-05-07T12:55:49;101404.88;;;18.71;95.60
25238;BME280;13185;50.872;5.306;2023-05-07T12:58:19;101401.50;;;18.79;94.36
25238;BME280;13185;50.872;5.306;2023-05-07T13:00:48;101402.78;;;18.85;95.05